This is the latest recevied weather packets stored in our database for station/object PE1BMM-13. If no packets are shown the sender has not sent any weather packets the latest 10 day(s).
| Time | Temp. | Humidity | Pressure | Rain* | Wind** | Luminosity | Snow |
|---|---|---|---|---|---|---|---|
| 1777763673 | 13.89° C | 93% | 1013.2 hPa | 0.51 mm | - | - | - |
| 1777763076 | 13.89° C | 93% | 1013.5 hPa | 0.51 mm | - | - | - |
| 1777761271 | 13.33° C | 92% | 1014.6 hPa | 0 mm | - | - | - |
| 1777752258 | 13.89° C | 87% | 1014.7 hPa | 0 mm | - | - | - |
| 1777749856 | 14.44° C | 84% | 1014.8 hPa | 0 mm | - | - | - |
| 1777749256 | 15° C | 84% | 1014.9 hPa | 0 mm | - | - | - |
| 1777742648 | 18.89° C | 61% | 1015.2 hPa | 0 mm | - | - | - |
| 1777737849 | 19.44° C | 54% | 1015.9 hPa | 0 mm | - | - | - |
| 1777733045 | 19.44° C | 52% | 1016.6 hPa | 0 mm | - | - | - |
| 1777728845 | 19.44° C | 57% | 1017.3 hPa | 0 mm | - | - | - |
| 1777727043 | 18.89° C | 70% | 1017.3 hPa | 0 mm | - | - | - |
| 1777725844 | 18.89° C | 75% | 1017.5 hPa | 0 mm | - | - | - |
| 1777725247 | 18.89° C | 76% | 1017.6 hPa | 0 mm | - | - | - |
| 1777722244 | 19.44° C | 77% | 1017.8 hPa | 0 mm | - | - | - |
| 1777721640 | 19.44° C | 77% | 1017.8 hPa | 0 mm | - | - | - |
| 1777715041 | 18.33° C | 83% | 1018 hPa | 0 mm | - | - | - |
| 1777713235 | 16.11° C | 89% | 1018.1 hPa | 0 mm | - | - | - |
| 1777712634 | 15.56° C | 88% | 1018 hPa | 0 mm | - | - | - |
| 1777711397 | 15.56° C | 86% | 1017.9 hPa | 0 mm | - | - | - |
| 1777709634 | 15° C | 86% | 1018 hPa | 0 mm | - | - | - |
| 1777709598 | 15° C | 86% | 1018 hPa | 0 mm | - | - | - |
| 1777706629 | 14.44° C | 83% | 1018 hPa | 0 mm | - | - | - |
| 1777699426 | 11.67° C | 78% | 1017.8 hPa | 0 mm | - | - | - |
| 1777698825 | 10.56° C | 80% | 1017.9 hPa | 0 mm | - | - | - |
| 1777698228 | 10° C | 81% | 1017.8 hPa | 0 mm | - | - | - |
* Rain latest hour (hover to see other rain measurements)
** Current wind speed in m/s (hover to see current wind gust speed)